Time;durP1;ratioP1;P1;durP2;ratioP2;P2;SDS_P1;SDS_P2;PMS_P1;PMS_P2;Temp;Humidity;BMP_temperature;BMP_pressure;BME280_temperature;BME280_humidity;BME280_pressure;Samples;Min_cycle;Max_cycle;Signal;HPM_P1;HPM_P2
2024/02/04 00:02:12;;;;;;;1.27;0.55;;;11.90;99.90;;;;;;5093040;28;20090;-63
2024/02/04 00:04:40;;;;;;;1.92;0.77;;;11.90;99.90;;;;;;5093772;28;20502;-63
2024/02/04 00:07:07;;;;;;;2.03;0.80;;;11.90;99.90;;;;;;5099356;28;20135;-63
2024/02/04 00:09:34;;;;;;;1.23;0.75;;;11.90;99.90;;;;;;5099480;28;20040;-63
2024/02/04 00:12:03;;;;;;;4.25;0.80;;;11.90;99.90;;;;;;5101762;28;20055;-63
2024/02/04 00:14:31;;;;;;;0.80;0.57;;;11.90;99.90;;;;;;5097787;28;20128;-63
2024/02/04 00:16:58;;;;;;;1.98;1.00;;;11.90;99.90;;;;;;5094092;28;20051;-63
2024/02/04 00:19:26;;;;;;;0.75;0.60;;;11.90;99.90;;;;;;5100038;28;20044;-63
2024/02/04 00:21:53;;;;;;;2.22;0.70;;;12.00;99.90;;;;;;5097595;28;20051;-63
2024/02/04 00:24:20;;;;;;;0.50;0.50;;;11.90;99.90;;;;;;5098246;28;20263;-63
2024/02/04 00:26:47;;;;;;;1.52;0.57;;;11.90;99.90;;;;;;5096993;28;20053;-63
2024/02/04 00:29:14;;;;;;;0.88;0.60;;;11.90;99.90;;;;;;5087416;28;20041;-63
2024/02/04 00:31:41;;;;;;;0.95;0.70;;;11.90;99.90;;;;;;5093694;28;20727;-63
2024/02/04 00:34:08;;;;;;;0.82;0.70;;;11.90;99.90;;;;;;5104700;28;20454;-63
2024/02/04 00:36:35;;;;;;;6.40;0.60;;;11.90;99.90;;;;;;5097487;28;20065;-64
2024/02/04 00:39:02;;;;;;;0.45;0.43;;;11.90;99.90;;;;;;5101542;28;20052;-64
2024/02/04 00:41:29;;;;;;;0.70;0.50;;;11.90;99.90;;;;;;5101104;28;20052;-63
2024/02/04 00:43:55;;;;;;;0.90;0.52;;;11.80;99.90;;;;;;5099329;28;20046;-63
2024/02/04 00:46:22;;;;;;;1.40;0.50;;;11.90;99.90;;;;;;5103463;28;20104;-64
2024/02/04 00:48:49;;;;;;;0.45;0.38;;;11.90;99.90;;;;;;5093743;28;20062;-63
2024/02/04 00:51:19;;;;;;;1.15;0.50;;;11.90;99.90;;;;;;5095907;28;20040;-63
2024/02/04 00:53:46;;;;;;;2.70;0.40;;;11.90;99.90;;;;;;5098540;28;20050;-64
2024/02/04 00:56:13;;;;;;;0.93;0.50;;;11.90;99.90;;;;;;5094065;28;20043;-63
2024/02/04 00:58:40;;;;;;;0.95;0.50;;;11.90;99.90;;;;;;5098142;28;20043;-64
2024/02/04 01:01:07;;;;;;;0.70;0.70;;;11.90;99.90;;;;;;5100956;28;20048;-64
2024/02/04 01:03:34;;;;;;;0.50;0.40;;;11.90;99.90;;;;;;5092431;28;20489;-64
2024/02/04 01:06:01;;;;;;;0.82;0.40;;;11.80;99.90;;;;;;5101885;28;20169;-65
2024/02/04 01:08:28;;;;;;;0.93;0.43;;;11.90;99.90;;;;;;5100182;28;20047;-65
2024/02/04 01:10:55;;;;;;;0.55;0.43;;;11.80;99.90;;;;;;5092398;28;20063;-64
2024/02/04 01:13:22;;;;;;;1.65;0.55;;;11.80;99.90;;;;;;5098933;28;20070;-64
2024/02/04 01:15:48;;;;;;;0.40;0.40;;;11.80;99.90;;;;;;5104436;28;20043;-64
2024/02/04 01:18:15;;;;;;;1.35;0.47;;;11.80;99.90;;;;;;5094581;28;20056;-63
2024/02/04 01:20:42;;;;;;;0.35;0.35;;;11.80;99.90;;;;;;5094662;28;20874;-63
2024/02/04 01:23:09;;;;;;;0.77;0.50;;;11.80;99.90;;;;;;5096067;28;20121;-63
2024/02/04 01:25:36;;;;;;;0.50;0.38;;;11.80;99.90;;;;;;5098338;28;20051;-64
2024/02/04 01:28:07;;;;;;;0.93;0.57;;;11.80;99.90;;;;;;5094662;28;20464;-64
2024/02/04 01:30:34;;;;;;;0.30;0.30;;;11.80;99.90;;;;;;5099196;28;20097;-64
2024/02/04 01:33:00;;;;;;;1.27;0.52;;;11.80;99.90;;;;;;5095282;28;20488;-64
2024/02/04 01:35:27;;;;;;;0.70;0.50;;;11.70;99.90;;;;;;5101054;28;20100;-64
2024/02/04 01:37:54;;;;;;;1.23;0.47;;;11.70;99.90;;;;;;5100953;28;20407;-63
2024/02/04 01:40:21;;;;;;;0.55;0.55;;;11.70;99.90;;;;;;5105214;28;20067;-64
2024/02/04 01:42:48;;;;;;;0.93;0.50;;;11.70;99.90;;;;;;5098442;28;20139;-64
2024/02/04 01:45:15;;;;;;;2.33;0.60;;;11.70;99.90;;;;;;5106687;28;20059;-64
2024/02/04 01:47:42;;;;;;;1.55;0.52;;;11.70;99.90;;;;;;5091586;28;20047;-64
2024/02/04 01:50:09;;;;;;;0.85;0.52;;;11.70;99.90;;;;;;5106733;28;20135;-64
2024/02/04 01:52:37;;;;;;;1.17;0.55;;;11.70;99.90;;;;;;5105779;28;20055;-64
2024/02/04 01:55:05;;;;;;;1.60;0.80;;;11.70;99.90;;;;;;5102989;28;20044;-64
2024/02/04 01:57:32;;;;;;;1.13;0.63;;;11.70;99.90;;;;;;5103497;28;20101;-64
2024/02/04 01:59:59;;;;;;;4.57;0.90;;;11.70;99.90;;;;;;5098091;28;20043;-64
2024/02/04 02:02:26;;;;;;;0.80;0.65;;;11.70;99.90;;;;;;5098689;28;20078;-63
2024/02/04 02:04:53;;;;;;;3.90;0.63;;;11.80;99.90;;;;;;5097886;28;20104;-64
2024/02/04 02:07:21;;;;;;;1.58;0.70;;;11.70;99.90;;;;;;5089907;28;20051;-63
2024/02/04 02:09:48;;;;;;;0.77;0.50;;;11.70;99.90;;;;;;5100904;28;20496;-63
2024/02/04 02:12:29;;;;;;;0.52;0.52;;;11.70;99.90;;;;;;5090792;28;20059;-64
2024/02/04 02:15:28;;;;;;;1.00;0.50;;;11.70;99.90;;;;;;5087789;28;20046;-63
2024/02/04 02:18:00;;;;;;;0.70;0.55;;;11.70;99.90;;;;;;5073915;28;20048;-64
2024/02/04 02:20:47;;;;;;;1.52;0.82;;;11.70;99.90;;;;;;5099841;28;20054;-63
2024/02/04 02:23:22;;;;;;;2.05;0.60;;;11.60;99.90;;;;;;5080385;28;20048;-62
2024/02/04 02:25:49;;;;;;;0.80;0.43;;;11.60;99.90;;;;;;5100108;28;20192;-63
2024/02/04 02:28:16;;;;;;;0.60;0.60;;;11.60;99.90;;;;;;5105237;28;20048;-63
2024/02/04 02:30:43;;;;;;;0.70;0.30;;;11.60;99.90;;;;;;5100871;28;20039;-63
2024/02/04 02:33:10;;;;;;;0.40;0.40;;;11.60;99.90;;;;;;5099284;28;20128;-63
2024/02/04 02:35:37;;;;;;;0.70;0.50;;;11.60;99.90;;;;;;5096282;28;20044;-63
2024/02/04 02:38:20;;;;;;;0.50;0.32;;;11.60;99.90;;;;;;5103350;28;20071;-63
2024/02/04 02:40:54;;;;;;;2.20;0.80;;;11.60;99.90;;;;;;5099815;28;20043;-63
2024/02/04 02:43:21;;;;;;;1.58;1.00;;;11.60;99.90;;;;;;5103039;28;20124;-63
2024/02/04 02:45:47;;;;;;;2.15;0.50;;;11.60;99.90;;;;;;5097278;28;20051;-63
2024/02/04 02:48:14;;;;;;;1.60;1.08;;;11.60;99.90;;;;;;5104297;28;20058;-63
2024/02/04 02:50:41;;;;;;;2.22;0.30;;;11.60;99.90;;;;;;5088706;28;20050;-63
2024/02/04 02:53:08;;;;;;;2.38;0.60;;;11.60;99.90;;;;;;5098105;28;20104;-63
2024/02/04 02:55:35;;;;;;;2.20;0.70;;;11.60;99.90;;;;;;5097189;28;20035;-63
2024/02/04 02:58:02;;;;;;;0.98;0.50;;;11.60;99.90;;;;;;5106332;28;20052;-63
2024/02/04 03:00:29;;;;;;;0.30;0.30;;;11.50;99.90;;;;;;5105419;28;20114;-64
2024/02/04 03:02:56;;;;;;;0.82;0.50;;;11.50;99.90;;;;;;5104023;28;20401;-63
2024/02/04 03:05:23;;;;;;;0.35;0.35;;;11.50;99.90;;;;;;5106728;28;20044;-64
2024/02/04 03:07:50;;;;;;;0.43;0.43;;;11.50;99.90;;;;;;5104136;28;20054;-63
2024/02/04 03:10:17;;;;;;;1.40;0.40;;;11.40;99.90;;;;;;5099013;28;20092;-64
2024/02/04 03:12:44;;;;;;;0.75;0.50;;;11.40;99.90;;;;;;5101581;28;20120;-64
2024/02/04 03:15:11;;;;;;;0.30;0.30;;;11.40;99.90;;;;;;5101062;28;20047;-63
2024/02/04 03:17:37;;;;;;;0.30;0.30;;;11.40;99.90;;;;;;5099594;28;20048;-64
2024/02/04 03:20:04;;;;;;;0.55;0.50;;;11.40;99.90;;;;;;5097746;28;20051;-64
2024/02/04 03:22:31;;;;;;;0.45;0.45;;;11.40;99.90;;;;;;5099861;28;20056;-64
2024/02/04 03:24:58;;;;;;;0.40;0.30;;;11.40;99.90;;;;;;5105030;28;20558;-64
2024/02/04 03:27:25;;;;;;;0.93;0.50;;;11.40;99.90;;;;;;5103171;28;20142;-63
2024/02/04 03:29:52;;;;;;;0.28;0.20;;;11.40;99.90;;;;;;5096413;28;20044;-63
2024/02/04 03:32:19;;;;;;;0.30;0.30;;;11.40;99.90;;;;;;5099751;28;20051;-63
2024/02/04 03:34:45;;;;;;;0.22;0.22;;;11.40;99.90;;;;;;5104921;28;20396;-63
2024/02/04 03:37:12;;;;;;;0.30;0.30;;;11.30;99.90;;;;;;5104105;28;20551;-63
2024/02/04 03:39:39;;;;;;;1.25;0.50;;;11.40;99.90;;;;;;5096296;28;20044;-63
2024/02/04 03:42:06;;;;;;;1.05;0.38;;;11.40;99.90;;;;;;5095071;28;20484;-63
2024/02/04 03:44:33;;;;;;;0.93;0.68;;;11.40;99.90;;;;;;5098154;28;20051;-62
2024/02/04 03:47:02;;;;;;;0.50;0.47;;;11.30;99.90;;;;;;5097173;28;20717;-64
2024/02/04 03:49:29;;;;;;;0.65;0.65;;;11.30;99.90;;;;;;5094735;28;20660;-63
2024/02/04 03:51:56;;;;;;;0.30;0.30;;;11.40;99.90;;;;;;5097020;28;20051;-63
2024/02/04 03:54:24;;;;;;;1.80;0.60;;;11.40;99.90;;;;;;5096881;28;20131;-63
2024/02/04 03:56:50;;;;;;;1.75;0.43;;;11.30;99.90;;;;;;5100561;28;20049;-65
2024/02/04 03:59:17;;;;;;;0.82;0.30;;;11.30;99.90;;;;;;5096278;28;20047;-64
2024/02/04 04:01:49;;;;;;;1.73;0.50;;;11.30;99.90;;;;;;5093073;28;20489;-64
2024/02/04 04:04:16;;;;;;;0.20;0.20;;;11.30;99.90;;;;;;5099080;28;20047;-61
2024/02/04 04:06:44;;;;;;;0.82;0.50;;;11.30;99.90;;;;;;5101134;28;20040;-62
2024/02/04 04:09:11;;;;;;;0.60;0.40;;;11.40;99.90;;;;;;5099361;28;20051;-64
2024/02/04 04:11:38;;;;;;;0.22;0.22;;;11.30;99.90;;;;;;5091049;28;20044;-64
2024/02/04 04:14:05;;;;;;;0.75;0.38;;;11.30;99.90;;;;;;5100315;28;20043;-63
2024/02/04 04:16:32;;;;;;;0.60;0.32;;;11.40;99.90;;;;;;5105968;28;20043;-64
2024/02/04 04:18:59;;;;;;;0.40;0.30;;;11.40;99.90;;;;;;5099602;28;20541;-64
2024/02/04 04:21:26;;;;;;;0.63;0.40;;;11.40;99.90;;;;;;5104746;28;20044;-63
2024/02/04 04:23:53;;;;;;;0.40;0.40;;;11.50;99.90;;;;;;5099354;28;20043;-63
2024/02/04 04:26:19;;;;;;;1.08;0.30;;;11.50;99.90;;;;;;5103069;28;20131;-64
2024/02/04 04:28:46;;;;;;;2.08;0.40;;;11.50;99.90;;;;;;5090732;28;20040;-63
2024/02/04 04:31:13;;;;;;;0.30;0.30;;;11.50;99.90;;;;;;5095020;28;20085;-63
2024/02/04 04:33:40;;;;;;;0.30;0.30;;;11.60;99.90;;;;;;5099839;28;20083;-63
2024/02/04 04:36:08;;;;;;;1.05;0.40;;;11.50;99.90;;;;;;5094646;28;20058;-63
2024/02/04 04:38:35;;;;;;;1.83;0.30;;;11.50;99.90;;;;;;5100382;28;20050;-63
2024/02/04 04:41:01;;;;;;;0.20;0.20;;;11.50;99.90;;;;;;5095270;28;20493;-63
2024/02/04 04:43:28;;;;;;;0.55;0.47;;;11.50;99.90;;;;;;5099118;28;20048;-64
2024/02/04 04:45:55;;;;;;;1.02;0.32;;;11.60;99.90;;;;;;5093247;28;20827;-64
2024/02/04 04:48:22;;;;;;;1.95;1.25;;;11.60;99.90;;;;;;5094700;28;20086;-63
2024/02/04 04:50:49;;;;;;;0.52;0.40;;;11.50;99.90;;;;;;5094929;28;20126;-63
2024/02/04 04:53:16;;;;;;;0.68;0.52;;;11.50;99.90;;;;;;5103327;28;20108;-63
2024/02/04 04:55:43;;;;;;;1.15;0.70;;;11.50;99.90;;;;;;5095792;28;20043;-63
2024/02/04 04:58:09;;;;;;;2.00;0.30;;;11.50;99.90;;;;;;5102723;28;20476;-63
2024/02/04 05:00:36;;;;;;;0.20;0.20;;;11.40;99.90;;;;;;5097257;28;20565;-64
2024/02/04 05:03:04;;;;;;;0.30;0.30;;;11.40;99.90;;;;;;5095268;28;20063;-63
2024/02/04 05:05:31;;;;;;;0.30;0.30;;;11.50;99.90;;;;;;5094645;28;20096;-63
2024/02/04 05:07:58;;;;;;;0.35;0.35;;;11.50;99.90;;;;;;5101797;28;20047;-64
2024/02/04 05:10:25;;;;;;;1.00;0.30;;;11.50;99.90;;;;;;5101974;28;20048;-63
2024/02/04 05:12:51;;;;;;;0.30;0.30;;;11.50;99.90;;;;;;5090717;28;20100;-64
2024/02/04 05:15:18;;;;;;;2.28;0.30;;;11.50;99.90;;;;;;5101857;28;20063;-63
2024/02/04 05:17:45;;;;;;;1.38;0.30;;;11.50;99.90;;;;;;5094231;28;20058;-63
2024/02/04 05:20:12;;;;;;;0.47;0.32;;;11.50;99.90;;;;;;5100308;28;20044;-64
2024/02/04 05:22:39;;;;;;;0.40;0.30;;;11.50;99.90;;;;;;5098132;28;20399;-66
2024/02/04 05:25:06;;;;;;;1.55;0.55;;;11.50;99.90;;;;;;5099560;28;20606;-65
2024/02/04 05:27:33;;;;;;;1.50;0.40;;;11.60;99.90;;;;;;5095631;28;20560;-62
2024/02/04 05:30:01;;;;;;;1.65;0.30;;;11.60;99.90;;;;;;5101050;28;20567;-62
2024/02/04 05:32:28;;;;;;;2.42;1.05;;;11.60;99.90;;;;;;5100608;28;20424;-63
2024/02/04 05:34:55;;;;;;;0.50;0.47;;;11.60;99.90;;;;;;5088170;28;20054;-63
2024/02/04 05:37:22;;;;;;;1.17;0.40;;;11.60;99.90;;;;;;5097225;28;20044;-63
2024/02/04 05:39:49;;;;;;;1.85;0.40;;;11.60;99.90;;;;;;5090849;28;20409;-63
2024/02/04 05:42:16;;;;;;;1.40;0.43;;;11.60;99.90;;;;;;5093466;28;20047;-64
2024/02/04 05:44:42;;;;;;;0.25;0.25;;;11.60;99.90;;;;;;5103088;28;20151;-63
2024/02/04 05:47:09;;;;;;;0.35;0.30;;;11.60;99.90;;;;;;5096857;28;20051;-63
2024/02/04 05:49:36;;;;;;;0.20;0.20;;;11.70;99.90;;;;;;5096073;28;20062;-63
2024/02/04 05:52:03;;;;;;;0.25;0.25;;;11.70;99.90;;;;;;5094100;28;20044;-63
2024/02/04 05:54:30;;;;;;;1.40;0.30;;;11.70;99.90;;;;;;5099670;28;20039;-63
2024/02/04 05:56:57;;;;;;;0.65;0.40;;;11.60;99.90;;;;;;5093958;28;20066;-63
2024/02/04 05:59:24;;;;;;;0.20;0.20;;;11.60;99.90;;;;;;5101990;28;20499;-63
2024/02/04 06:01:50;;;;;;;0.20;0.20;;;11.70;99.90;;;;;;5099406;28;20250;-63
2024/02/04 06:04:17;;;;;;;0.20;0.20;;;11.60;99.90;;;;;;5090702;28;20047;-63
2024/02/04 06:06:44;;;;;;;0.20;0.20;;;11.70;99.90;;;;;;5100442;28;20043;-62
2024/02/04 06:09:11;;;;;;;1.55;0.30;;;11.70;99.90;;;;;;5100014;28;20051;-62
2024/02/04 06:11:38;;;;;;;1.63;0.30;;;11.60;99.90;;;;;;5098788;28;20040;-62
2024/02/04 06:14:05;;;;;;;0.60;0.20;;;11.60;99.90;;;;;;5101018;28;20075;-62
2024/02/04 06:16:34;;;;;;;0.95;0.20;;;11.60;99.90;;;;;;5098046;28;20554;-62
2024/02/04 06:19:00;;;;;;;1.02;1.02;;;11.60;99.90;;;;;;5097219;28;20058;-62
2024/02/04 06:21:27;;;;;;;0.35;0.30;;;11.60;99.90;;;;;;5091740;28;20048;-63
2024/02/04 06:23:54;;;;;;;2.38;0.40;;;11.60;99.90;;;;;;5093940;28;20036;-62
2024/02/04 06:26:21;;;;;;;2.03;0.30;;;11.60;99.90;;;;;;5095017;28;20063;-63
2024/02/04 06:28:50;;;;;;;0.20;0.20;;;11.60;99.90;;;;;;5101074;28;20533;-63
2024/02/04 06:31:18;;;;;;;0.30;0.30;;;11.50;99.90;;;;;;5096926;28;20083;-63
2024/02/04 06:33:45;;;;;;;0.75;0.40;;;11.60;99.90;;;;;;5099050;28;20617;-62
2024/02/04 06:36:12;;;;;;;0.65;0.30;;;11.60;99.90;;;;;;5098819;28;20135;-62
2024/02/04 06:38:39;;;;;;;1.58;0.20;;;11.60;99.90;;;;;;5096088;28;20056;-62
2024/02/04 06:41:06;;;;;;;0.30;0.30;;;11.60;99.90;;;;;;5089476;28;20052;-62
2024/02/04 06:43:33;;;;;;;1.25;1.10;;;11.60;99.90;;;;;;5095850;28;20372;-63
2024/02/04 06:46:02;;;;;;;0.20;0.20;;;11.60;99.90;;;;;;5098781;28;20052;-62
2024/02/04 06:48:30;;;;;;;0.30;0.20;;;11.60;99.90;;;;;;5092653;28;20059;-63
2024/02/04 06:50:57;;;;;;;2.88;0.20;;;11.60;99.90;;;;;;5098179;28;20044;-62
2024/02/04 06:53:24;;;;;;;0.52;0.40;;;11.60;99.90;;;;;;5097705;28;20101;-62
2024/02/04 06:55:50;;;;;;;0.10;0.10;;;11.60;99.90;;;;;;5094507;28;20081;-62
2024/02/04 06:58:17;;;;;;;0.65;0.22;;;11.70;99.90;;;;;;5106728;28;20511;-63
2024/02/04 07:00:46;;;;;;;0.55;0.50;;;11.60;99.90;;;;;;5105739;28;20410;-62
2024/02/04 07:03:13;;;;;;;0.20;0.20;;;11.60;99.90;;;;;;5095064;28;20052;-62
2024/02/04 07:05:40;;;;;;;0.43;0.20;;;11.70;99.90;;;;;;5103344;28;20092;-63
2024/02/04 07:08:07;;;;;;;0.20;0.20;;;11.70;99.90;;;;;;5104363;28;20064;-66
2024/02/04 07:10:34;;;;;;;0.38;0.10;;;11.80;99.90;;;;;;5099981;28;20094;-63
2024/02/04 07:13:01;;;;;;;1.60;0.22;;;11.80;99.90;;;;;;5106098;28;20517;-62
2024/02/04 07:15:28;;;;;;;0.25;0.20;;;11.70;99.90;;;;;;5098604;28;20532;-63
2024/02/04 07:17:55;;;;;;;3.17;0.95;;;11.80;99.90;;;;;;5094636;28;20051;-63
2024/02/04 07:20:22;;;;;;;2.70;0.75;;;11.80;99.90;;;;;;5099444;28;20211;-63
2024/02/04 07:22:49;;;;;;;0.75;0.40;;;11.70;99.90;;;;;;5102692;28;20076;-63
2024/02/04 07:25:15;;;;;;;0.63;0.40;;;11.80;99.90;;;;;;5101017;28;20036;-63
2024/02/04 07:27:42;;;;;;;0.43;0.20;;;11.80;99.90;;;;;;5105878;28;20065;-63
2024/02/04 07:30:10;;;;;;;2.55;0.50;;;11.80;99.90;;;;;;5101329;28;20397;-63
2024/02/04 07:32:37;;;;;;;1.15;0.32;;;11.70;99.90;;;;;;5092835;28;20044;-63
2024/02/04 07:35:05;;;;;;;1.52;0.22;;;11.80;99.90;;;;;;5105825;28;20065;-62
2024/02/04 07:37:33;;;;;;;1.08;0.20;;;11.80;99.90;;;;;;5099044;28;20126;-63
2024/02/04 07:40:00;;;;;;;0.40;0.40;;;11.80;99.90;;;;;;5105078;28;20077;-62
2024/02/04 07:42:27;;;;;;;0.32;0.30;;;11.80;99.90;;;;;;5102668;28;20048;-63
2024/02/04 07:44:54;;;;;;;0.20;0.20;;;11.80;99.90;;;;;;5096383;28;20425;-63
2024/02/04 07:47:21;;;;;;;0.20;0.20;;;11.80;99.90;;;;;;5100790;28;20048;-63
2024/02/04 07:49:49;;;;;;;0.40;0.38;;;11.80;99.90;;;;;;5092788;28;20437;-63
2024/02/04 07:52:16;;;;;;;0.30;0.30;;;11.80;99.90;;;;;;5098105;28;20055;-63
2024/02/04 07:54:43;;;;;;;0.90;0.25;;;11.90;99.90;;;;;;5095935;28;20047;-64
2024/02/04 07:57:10;;;;;;;2.40;0.20;;;11.90;99.90;;;;;;5100924;28;20085;-63
2024/02/04 07:59:37;;;;;;;1.40;0.40;;;11.90;99.90;;;;;;5099997;28;20090;-64
2024/02/04 08:02:04;;;;;;;1.83;0.25;;;11.90;99.90;;;;;;5104250;28;20447;-63
2024/02/04 08:04:31;;;;;;;1.48;0.30;;;11.90;99.90;;;;;;5094509;28;21042;-63
2024/02/04 08:06:58;;;;;;;0.28;0.20;;;11.90;99.90;;;;;;5097886;28;20134;-64
2024/02/04 08:09:25;;;;;;;0.20;0.20;;;12.00;99.90;;;;;;5093414;28;20127;-63
2024/02/04 08:11:52;;;;;;;0.65;0.22;;;11.90;99.90;;;;;;5098020;28;21375;-63
2024/02/04 08:14:21;;;;;;;1.35;0.35;;;11.90;99.90;;;;;;5095826;28;20084;-63
2024/02/04 08:16:49;;;;;;;0.20;0.20;;;11.80;99.90;;;;;;5099509;28;20848;-62
2024/02/04 08:19:16;;;;;;;0.20;0.17;;;11.80;99.90;;;;;;5096210;27;20052;-62
2024/02/04 08:21:43;;;;;;;1.98;0.30;;;11.80;99.90;;;;;;5098052;28;20093;-64
2024/02/04 08:24:10;;;;;;;0.85;0.30;;;11.80;99.90;;;;;;5094127;28;20093;-62
2024/02/04 08:26:37;;;;;;;0.50;0.32;;;11.80;99.90;;;;;;5100535;28;20112;-63
2024/02/04 08:29:04;;;;;;;0.52;0.40;;;11.80;99.90;;;;;;5103688;28;20048;-62
2024/02/04 08:31:32;;;;;;;2.33;0.50;;;11.70;99.90;;;;;;5101453;27;20088;-62
2024/02/04 08:33:59;;;;;;;0.57;0.30;;;11.80;99.90;;;;;;5098086;28;20104;-62
2024/02/04 08:36:26;;;;;;;0.17;0.17;;;11.80;99.90;;;;;;5095899;28;20088;-61
2024/02/04 08:38:52;;;;;;;0.60;0.30;;;11.80;99.90;;;;;;5095368;28;20573;-62
2024/02/04 08:41:19;;;;;;;1.95;0.52;;;11.80;99.90;;;;;;5101472;28;20039;-62
2024/02/04 08:43:46;;;;;;;2.17;0.70;;;11.80;99.90;;;;;;5092236;28;20128;-62
2024/02/04 08:46:13;;;;;;;0.75;0.40;;;11.80;99.90;;;;;;5102523;28;20055;-62
2024/02/04 08:48:41;;;;;;;1.75;0.40;;;11.80;99.90;;;;;;5098919;28;20127;-62
2024/02/04 08:51:13;;;;;;;0.90;0.20;;;11.80;99.90;;;;;;5095249;27;20053;-62
2024/02/04 08:53:39;;;;;;;0.90;0.40;;;11.80;99.90;;;;;;5096379;27;20051;-62
2024/02/04 08:56:07;;;;;;;1.77;0.73;;;11.90;99.90;;;;;;5103267;28;20043;-62
2024/02/04 08:58:36;;;;;;;1.65;0.68;;;11.90;99.90;;;;;;5095953;28;20052;-62
2024/02/04 09:01:04;;;;;;;1.35;0.30;;;12.00;99.90;;;;;;5100157;28;20047;-62
2024/02/04 09:03:32;;;;;;;2.45;0.52;;;11.90;99.90;;;;;;5098467;28;20052;-62
2024/02/04 09:05:59;;;;;;;1.75;0.63;;;11.90;99.90;;;;;;5095603;28;20084;-62
2024/02/04 09:08:26;;;;;;;4.18;0.77;;;11.90;99.90;;;;;;5101065;28;20112;-62
2024/02/04 09:10:53;;;;;;;1.45;0.85;;;12.00;99.90;;;;;;5096263;28;20748;-61
2024/02/04 09:13:20;;;;;;;3.08;0.68;;;11.90;99.90;;;;;;5095157;28;20466;-61
2024/02/04 09:15:47;;;;;;;1.30;0.55;;;12.00;99.90;;;;;;5102616;28;20052;-62
2024/02/04 09:18:14;;;;;;;1.65;0.50;;;12.00;99.90;;;;;;5094755;28;20048;-61
2024/02/04 09:20:41;;;;;;;1.73;0.40;;;12.10;99.90;;;;;;5093136;28;20047;-62
2024/02/04 09:23:08;;;;;;;1.95;0.75;;;12.00;99.90;;;;;;5099099;28;20560;-61
2024/02/04 09:25:35;;;;;;;0.45;0.43;;;12.10;99.90;;;;;;5094428;28;20052;-62
2024/02/04 09:28:03;;;;;;;3.08;0.82;;;12.10;99.90;;;;;;5092873;28;20054;-64
2024/02/04 09:30:30;;;;;;;3.30;0.70;;;12.20;99.90;;;;;;5093982;28;20044;-63
2024/02/04 09:32:57;;;;;;;1.45;0.80;;;12.20;99.90;;;;;;5103878;28;20489;-62
2024/02/04 09:35:24;;;;;;;1.65;0.50;;;12.10;99.90;;;;;;5099016;28;20071;-60
2024/02/04 09:37:51;;;;;;;1.02;0.30;;;12.20;99.90;;;;;;5103338;28;20066;-61
2024/02/04 09:40:19;;;;;;;0.32;0.30;;;12.20;99.90;;;;;;5095974;28;20044;-61
2024/02/04 09:42:46;;;;;;;3.10;0.52;;;12.20;99.90;;;;;;5097635;28;20040;-60
2024/02/04 09:45:12;;;;;;;0.50;0.40;;;12.20;99.90;;;;;;5095738;28;20368;-60
2024/02/04 09:47:39;;;;;;;2.85;0.57;;;12.20;99.90;;;;;;5103563;28;20050;-62
2024/02/04 09:50:06;;;;;;;12.25;1.02;;;12.20;99.90;;;;;;5094975;28;20503;-60
2024/02/04 09:52:33;;;;;;;1.65;0.50;;;12.30;99.90;;;;;;5075740;28;20522;-61
2024/02/04 09:55:01;;;;;;;1.08;0.68;;;12.30;99.90;;;;;;5096220;28;20723;-60
2024/02/04 09:57:32;;;;;;;4.57;0.95;;;12.30;99.90;;;;;;5109161;28;20047;-61
2024/02/04 09:59:59;;;;;;;2.03;0.75;;;12.30;99.90;;;;;;5098053;28;20059;-60
2024/02/04 10:02:26;;;;;;;1.20;0.50;;;12.30;99.90;;;;;;5076014;28;20115;-59
2024/02/04 10:04:53;;;;;;;1.38;0.50;;;12.30;99.90;;;;;;5102757;28;20058;-60
2024/02/04 10:07:20;;;;;;;1.88;0.68;;;12.40;99.90;;;;;;5101217;27;20048;-60
2024/02/04 10:09:47;;;;;;;0.40;0.30;;;12.40;99.90;;;;;;5105907;28;20044;-61
2024/02/04 10:12:14;;;;;;;1.08;0.68;;;12.40;99.90;;;;;;5093303;28;20144;-60
2024/02/04 10:14:41;;;;;;;1.48;0.40;;;12.40;99.90;;;;;;5092834;28;20203;-60
2024/02/04 10:17:08;;;;;;;1.95;0.50;;;12.50;99.90;;;;;;5100760;28;20267;-60
2024/02/04 10:19:35;;;;;;;2.70;0.50;;;12.50;99.90;;;;;;5099755;28;20047;-61
2024/02/04 10:22:03;;;;;;;1.63;0.40;;;12.50;99.90;;;;;;5099458;28;20066;-59
2024/02/04 10:24:30;;;;;;;0.80;0.40;;;12.50;99.90;;;;;;5105330;28;20574;-60
2024/02/04 10:26:57;;;;;;;0.80;0.63;;;12.50;99.90;;;;;;5093004;28;20097;-61
2024/02/04 10:29:25;;;;;;;1.33;0.32;;;12.50;99.90;;;;;;5101489;28;20554;-61
2024/02/04 10:31:55;;;;;;;1.35;0.60;;;12.60;99.90;;;;;;5097507;28;20044;-61
2024/02/04 10:34:22;;;;;;;1.38;0.57;;;12.50;99.90;;;;;;5099865;28;20365;-60
2024/02/04 10:36:49;;;;;;;1.08;0.47;;;12.60;99.90;;;;;;5094310;28;20074;-60
2024/02/04 10:39:17;;;;;;;1.52;0.77;;;12.60;99.90;;;;;;5096956;28;20499;-60
2024/02/04 10:41:50;;;;;;;2.28;0.68;;;12.60;99.90;;;;;;5104260;28;20048;-59
2024/02/04 10:44:18;;;;;;;1.83;0.57;;;12.70;99.90;;;;;;5089225;28;20060;-60
2024/02/04 10:46:48;;;;;;;9.52;5.55;;;12.70;99.90;;;;;;5098448;28;20043;-60
2024/02/04 10:49:15;;;;;;;2.40;0.63;;;12.80;99.90;;;;;;5091312;28;20051;-59
2024/02/04 10:51:43;;;;;;;5.32;4.10;;;12.80;99.90;;;;;;5096540;28;20074;-60
2024/02/04 10:54:10;;;;;;;2.47;0.95;;;12.90;99.90;;;;;;5098263;28;20060;-60
2024/02/04 10:56:37;;;;;;;4.75;0.90;;;13.00;99.90;;;;;;5086957;28;20581;-60
2024/02/04 10:59:05;;;;;;;1.85;0.65;;;13.10;99.90;;;;;;5097820;27;20043;-60
2024/02/04 11:01:32;;;;;;;2.38;0.57;;;13.20;99.90;;;;;;5103109;28;20633;-59
2024/02/04 11:03:59;;;;;;;2.33;0.63;;;13.20;99.90;;;;;;5086675;28;20044;-59
2024/02/04 11:06:26;;;;;;;4.75;0.40;;;13.20;99.90;;;;;;5102708;28;20056;-61
2024/02/04 11:08:54;;;;;;;1.13;0.60;;;13.30;99.90;;;;;;5101904;28;20100;-60
2024/02/04 11:11:24;;;;;;;3.70;1.52;;;13.30;99.90;;;;;;5104610;28;20519;-60
2024/02/04 11:13:51;;;;;;;6.40;0.60;;;13.30;99.90;;;;;;5101242;28;20087;-60
2024/02/04 11:16:52;;;;;;;5.47;0.80;;;13.30;99.90;;;;;;5088254;28;20100;-60
2024/02/04 11:19:44;;;;;;;1.80;0.60;;;13.30;99.90;;;;;;5099601;28;20097;-59
2024/02/04 11:22:52;;;;;;;2.65;0.70;;;13.40;99.90;;;;;;5100479;28;20051;-60
2024/02/04 11:25:45;;;;;;;1.02;0.40;;;13.50;99.90;;;;;;5093818;28;20055;-61
2024/02/04 11:28:12;;;;;;;1.73;0.70;;;13.40;99.90;;;;;;5102301;28;20047;-60
2024/02/04 11:30:39;;;;;;;3.72;0.80;;;13.50;99.90;;;;;;5105002;28;20479;-61
2024/02/04 11:33:06;;;;;;;2.55;0.70;;;13.60;99.90;;;;;;5099264;28;20048;-61
2024/02/04 11:35:34;;;;;;;7.55;0.68;;;13.40;99.90;;;;;;5098124;28;20203;-61
2024/02/04 11:38:05;;;;;;;1.65;0.70;;;13.50;99.90;;;;;;5101240;28;20187;-61
2024/02/04 11:40:36;;;;;;;3.42;0.98;;;13.50;99.90;;;;;;5091476;28;20046;-60
2024/02/04 11:43:15;;;;;;;3.40;0.50;;;13.50;99.90;;;;;;5094247;28;20108;-61
2024/02/04 11:45:42;;;;;;;5.78;0.75;;;13.50;99.90;;;;;;5095279;27;20066;-61
2024/02/04 11:48:10;;;;;;;4.40;0.93;;;13.60;99.90;;;;;;5096542;28;20051;-60
2024/02/04 11:50:38;;;;;;;3.75;1.02;;;13.70;99.90;;;;;;5098867;28;20043;-61
2024/02/04 11:53:06;;;;;;;4.10;0.95;;;13.70;99.90;;;;;;5099415;28;20059;-60
2024/02/04 11:55:34;;;;;;;3.45;0.73;;;13.80;99.90;;;;;;5095487;28;20062;-60
2024/02/04 11:58:01;;;;;;;4.80;0.90;;;13.90;99.90;;;;;;5103032;28;20051;-60
2024/02/04 12:00:28;;;;;;;1.55;0.57;;;13.90;99.90;;;;;;5095458;28;20048;-60
2024/02/04 12:03:02;;;;;;;2.85;0.98;;;13.80;99.90;;;;;;5092183;28;20113;-59
2024/02/04 12:05:34;;;;;;;3.80;0.55;;;13.90;99.90;;;;;;5099954;28;20467;-60
2024/02/04 12:08:07;;;;;;;4.10;1.23;;;13.90;99.90;;;;;;5102792;28;20456;-62
2024/02/04 12:10:35;;;;;;;;;;;13.90;99.90;;;;;;5097745;28;20082;-62
2024/02/04 12:13:03;;;;;;;3.30;0.70;;;13.90;99.90;;;;;;5101043;28;19930;-60
2024/02/04 12:15:30;;;;;;;2.20;0.50;;;14.00;99.90;;;;;;5098943;28;20525;-60
2024/02/04 12:18:09;;;;;;;2.30;0.57;;;13.90;99.90;;;;;;5100510;28;20093;-60
2024/02/04 12:20:37;;;;;;;5.85;0.93;;;13.80;99.90;;;;;;5091608;28;20047;-60
2024/02/04 12:23:04;;;;;;;4.60;0.85;;;13.80;99.90;;;;;;5098781;28;20183;-60
2024/02/04 12:25:31;;;;;;;2.17;0.50;;;13.80;99.90;;;;;;5093925;28;20178;-60
2024/02/04 12:27:59;;;;;;;0.68;0.57;;;13.90;99.90;;;;;;5079460;28;20040;-60
2024/02/04 12:30:29;;;;;;;3.03;0.45;;;13.80;99.90;;;;;;5097762;28;20256;-61
2024/02/04 12:33:00;;;;;;;3.20;0.50;;;13.70;99.90;;;;;;5093602;28;20340;-61
2024/02/04 12:35:27;;;;;;;0.98;0.35;;;13.70;99.90;;;;;;5095216;28;20050;-60
2024/02/04 12:37:56;;;;;;;0.47;0.30;;;13.70;99.90;;;;;;5102694;28;20112;-61
2024/02/04 12:40:29;;;;;;;1.60;0.47;;;13.70;99.90;;;;;;5098794;28;20095;-60
2024/02/04 12:42:59;;;;;;;2.30;1.80;;;13.60;99.90;;;;;;5092688;28;20055;-61
2024/02/04 12:45:32;;;;;;;2.83;0.52;;;13.60;99.90;;;;;;5094047;28;20056;-61
2024/02/04 12:47:59;;;;;;;1.55;0.40;;;13.70;99.90;;;;;;5078421;28;20514;-60
2024/02/04 12:50:26;;;;;;;4.78;0.68;;;13.70;99.90;;;;;;5102964;28;20126;-60
2024/02/04 12:53:04;;;;;;;0.88;0.50;;;13.70;99.90;;;;;;5098943;28;20103;-60